Time;durP1;ratioP1;P1;durP2;ratioP2;P2;SDS_P1;SDS_P2;PMS_P1;PMS_P2;Temp;Humidity;BMP_temperature;BMP_pressure;BME280_temperature;BME280_humidity;BME280_pressure;Samples;Min_cycle;Max_cycle;Signal;HPM_P1;HPM_P2
2021/08/12 00:02:07;;;;;;;;;;;;;;;20.17;66.34;96617.06;5097091;28;20396;-61
2021/08/12 00:04:33;;;;;;;;;;;;;;;20.15;66.55;96615.50;5097072;28;19915;-63
2021/08/12 00:06:59;;;;;;;;;;;;;;;20.17;66.46;96616.25;5097209;28;19912;-63
2021/08/12 00:09:24;;;;;;;;;;;;;;;20.17;66.29;96616.25;5097038;28;20375;-62
2021/08/12 00:11:50;;;;;;;;;;;;;;;20.16;66.47;96620.69;5097000;28;20007;-61
2021/08/12 00:14:15;;;;;;;;;;;;;;;20.11;66.71;96620.22;5078805;28;19915;-61
2021/08/12 00:16:41;;;;;;;;;;;;;;;20.12;66.96;96616.59;5096949;28;20320;-62
2021/08/12 00:19:11;;;;;;;;;;;;;;;20.03;66.52;96625.25;5097056;28;19912;-63
2021/08/12 00:21:37;;;;;;;;;;;;;;;20.00;66.29;96620.13;5096807;28;19919;-62
2021/08/12 00:24:02;;;;;;;;;;;;;;;19.99;66.60;96624.59;5096654;28;19990;-62
2021/08/12 00:26:28;;;;;;;;;;;;;;;20.01;66.75;96625.34;5096703;28;20037;-61
2021/08/12 00:28:53;;;;;;;;;;;;;;;19.93;66.16;96627.72;5096839;28;20052;-61
2021/08/12 00:31:18;;;;;;;;;;;;;;;19.95;67.11;96628.44;5096685;28;19919;-61
2021/08/12 00:33:44;;;;;;;;;;;;;;;19.87;66.61;96621.03;5096616;28;20012;-62
2021/08/12 00:36:10;;;;;;;;;;;;;;;19.87;67.19;96621.03;5096609;28;19912;-61
2021/08/12 00:38:35;;;;;;;;;;;;;;;19.88;67.22;96619.25;5096506;28;19912;-61
2021/08/12 00:41:00;;;;;;;;;;;;;;;19.79;67.58;96626.94;5096460;28;19935;-61
2021/08/12 00:43:26;;;;;;;;;;;;;;;19.70;67.60;96619.66;5096421;28;19915;-61
2021/08/12 00:45:51;;;;;;;;;;;;;;;19.70;67.61;96631.13;5078107;28;20003;-63
2021/08/12 00:48:17;;;;;;;;;;;;;;;19.69;67.75;96620.63;5096433;28;19916;-60
2021/08/12 00:50:42;;;;;;;;;;;;;;;19.68;67.40;96633.03;5094971;28;19916;-61
2021/08/12 00:53:08;;;;;;;;;;;;;;;19.70;67.51;96622.31;5096186;28;20374;-62
2021/08/12 00:55:35;;;;;;;;;;;;;;;19.71;67.39;96621.34;5096158;28;19912;-61
2021/08/12 00:58:02;;;;;;;;;;;;;;;19.68;67.10;96627.72;5096037;28;19973;-62
2021/08/12 01:00:27;;;;;;;;;;;;;;;19.64;67.28;96623.59;5096050;28;20348;-62
2021/08/12 01:02:52;;;;;;;;;;;;;;;19.57;67.83;96628.50;5096130;28;19958;-63
2021/08/12 01:05:18;;;;;;;;;;;;;;;19.52;68.07;96627.16;5096032;28;19951;-62
2021/08/12 01:08:12;;;;;;;;;;;;;;;19.40;69.96;96624.44;5095899;28;20289;-61
2021/08/12 01:10:54;;;;;;;;;;;;;;;19.38;68.97;96631.66;5078131;28;19912;-62
2021/08/12 01:13:38;;;;;;;;;;;;;;;19.42;68.34;96619.88;5095800;28;19912;-61
2021/08/12 01:16:07;;;;;;;;;;;;;;;19.37;68.70;96624.66;5095784;28;20006;-60
2021/08/12 01:18:35;;;;;;;;;;;;;;;19.40;68.80;96619.16;5095831;28;20277;-61
2021/08/12 01:21:24;;;;;;;;;;;;;;;19.43;69.47;96612.75;5095693;28;20289;-62
2021/08/12 01:23:49;;;;;;;;;;;;;;;19.43;69.20;96620.72;5095466;28;19916;-63
2021/08/12 01:26:18;;;;;;;;;;;;;;;19.37;69.21;96619.38;5095580;28;19934;-61
2021/08/12 01:28:45;;;;;;;;;;;;;;;19.40;69.40;96618.28;5095677;28;20316;-60
2021/08/12 01:31:20;;;;;;;;;;;;;;;19.40;69.27;96627.09;5095654;28;20270;-62
2021/08/12 01:33:55;;;;;;;;;;;;;;;19.37;68.60;96619.38;5095334;28;19955;-61
2021/08/12 01:36:22;;;;;;;;;;;;;;;19.28;69.79;96610.28;5095399;28;19912;-61
2021/08/12 01:38:49;;;;;;;;;;;;;;;19.26;69.73;96617.47;5095271;28;19916;-62
2021/08/12 01:41:15;;;;;;;;;;;;;;;19.28;69.77;96618.22;5095477;28;19947;-60
2021/08/12 01:43:40;;;;;;;;;;;;;;;19.29;69.18;96613.75;5095230;28;19912;-62
2021/08/12 01:46:06;;;;;;;;;;;;;;;19.26;69.29;96614.84;5095116;28;20397;-61
2021/08/12 01:48:32;;;;;;;;;;;;;;;19.18;69.75;96615.38;5095056;28;19965;-61
2021/08/12 01:50:58;;;;;;;;;;;;;;;19.13;69.64;96622.81;5077013;28;20278;-61
2021/08/12 01:53:24;;;;;;;;;;;;;;;19.03;69.67;96616.47;5095123;28;19912;-60
2021/08/12 01:55:50;;;;;;;;;;;;;;;18.98;70.04;96616.78;5094942;28;20362;-62
2021/08/12 01:58:17;;;;;;;;;;;;;;;18.96;70.13;96623.16;5094905;28;19958;-61
2021/08/12 02:00:51;;;;;;;;;;;;;;;18.99;70.00;96618.47;5094798;28;19923;-61
2021/08/12 02:03:17;;;;;;;;;;;;;;;19.00;70.30;96614.88;5094581;28;19912;-60
2021/08/12 02:05:44;;;;;;;;;;;;;;;19.03;70.33;96619.13;5094757;28;19923;-62
2021/08/12 02:08:10;;;;;;;;;;;;;;;18.96;69.89;96612.56;5094686;28;19912;-62
2021/08/12 02:10:35;;;;;;;;;;;;;;;18.98;70.45;96611.50;5094657;28;19919;-60
2021/08/12 02:13:01;;;;;;;;;;;;;;;18.95;70.08;96606.41;5094639;28;19918;-62
2021/08/12 02:15:27;;;;;;;;;;;;;;;18.96;69.92;96602.78;5094668;28;19916;-62
2021/08/12 02:17:52;;;;;;;;;;;;;;;19.04;69.68;96603.09;5094686;28;19951;-62
2021/08/12 02:20:18;;;;;;;;;;;;;;;19.09;69.35;96604.59;5094637;28;20002;-61
2021/08/12 02:22:46;;;;;;;;;;;;;;;19.14;69.89;96611.25;5094429;28;19912;-62
2021/08/12 02:25:13;;;;;;;;;;;;;;;19.17;69.90;96612.84;5076166;28;20277;-60
2021/08/12 02:27:43;;;;;;;;;;;;;;;19.18;69.39;96610.06;5094421;28;19912;-62
2021/08/12 02:30:09;;;;;;;;;;;;;;;19.21;69.39;96608.19;5094433;28;19912;-60
2021/08/12 02:32:35;;;;;;;;;;;;;;;19.21;69.36;96605.53;5094405;28;20005;-62
2021/08/12 02:35:01;;;;;;;;;;;;;;;19.20;69.01;96609.97;5094172;28;20362;-61
2021/08/12 02:37:26;;;;;;;;;;;;;;;19.14;69.15;96605.13;5094354;28;20002;-61
2021/08/12 02:39:52;;;;;;;;;;;;;;;19.03;69.82;96609.34;5094145;28;19912;-60
2021/08/12 02:42:18;;;;;;;;;;;;;;;18.93;70.68;96613.59;5094211;28;20290;-61
2021/08/12 02:44:44;;;;;;;;;;;;;;;18.96;70.56;96612.56;5093751;28;19923;-60
2021/08/12 02:47:10;;;;;;;;;;;;;;;18.92;69.78;96607.47;5094154;28;19980;-62
2021/08/12 02:49:39;;;;;;;;;;;;;;;18.97;70.36;96612.44;5094067;28;19977;-62
2021/08/12 02:52:05;;;;;;;;;;;;;;;18.97;69.76;96611.59;5094224;28;19919;-62
2021/08/12 02:54:31;;;;;;;;;;;;;;;19.03;69.79;96613.81;5094159;28;20018;-62
2021/08/12 02:56:56;;;;;;;;;;;;;;;18.98;69.76;96619.44;5093969;28;20281;-62
2021/08/12 02:59:23;;;;;;;;;;;;;;;18.94;69.80;96621.44;5093745;28;19912;-61
2021/08/12 03:01:49;;;;;;;;;;;;;;;18.87;70.42;96620.19;5093872;28;19919;-62
2021/08/12 03:04:17;;;;;;;;;;;;;;;18.81;70.15;96623.25;5093691;28;19919;-60
2021/08/12 03:06:43;;;;;;;;;;;;;;;18.85;70.29;96621.25;5093778;28;19953;-61
2021/08/12 03:09:09;;;;;;;;;;;;;;;18.74;70.29;96629.94;5093800;28;20060;-62
2021/08/12 03:11:35;;;;;;;;;;;;;;;18.62;70.90;96631.66;5093604;28;20358;-60
2021/08/12 03:14:01;;;;;;;;;;;;;;;18.61;71.40;96622.03;5092896;28;19935;-62
2021/08/12 03:16:26;;;;;;;;;;;;;;;18.64;71.01;96622.66;5093680;28;20369;-61
2021/08/12 03:18:53;;;;;;;;;;;;;;;18.66;71.36;96622.56;5093615;28;19919;-62
2021/08/12 03:21:19;;;;;;;;;;;;;;;18.63;71.54;96630.72;5093574;28;20401;-62
2021/08/12 03:23:44;;;;;;;;;;;;;;;18.63;71.08;96628.06;5093527;28;19951;-61
2021/08/12 03:26:10;;;;;;;;;;;;;;;18.72;71.27;96629.22;5093846;28;19918;-62
2021/08/12 03:28:36;;;;;;;;;;;;;;;18.72;70.67;96634.53;5093692;28;19946;-63
2021/08/12 03:31:02;;;;;;;;;;;;;;;18.78;71.02;96634.94;5093516;28;20388;-62
2021/08/12 03:33:28;;;;;;;;;;;;;;;18.81;70.95;96632.06;5093464;28;19916;-61
2021/08/12 03:35:53;;;;;;;;;;;;;;;18.85;70.76;96637.16;5093414;28;19922;-61
2021/08/12 03:38:20;;;;;;;;;;;;;;;18.88;70.50;96635.16;5093509;28;19950;-61
2021/08/12 03:40:46;;;;;;;;;;;;;;;18.90;70.38;96635.88;5093367;28;20370;-61
2021/08/12 03:43:12;;;;;;;;;;;;;;;18.95;70.36;96638.22;5093596;28;19962;-61
2021/08/12 03:45:37;;;;;;;;;;;;;;;19.03;70.26;96651.75;5093105;28;19916;-64
2021/08/12 03:48:02;;;;;;;;;;;;;;;19.09;70.03;96647.00;5093463;28;19916;-61
2021/08/12 03:50:28;;;;;;;;;;;;;;;19.17;70.30;96652.59;5093383;28;20422;-63
2021/08/12 03:52:53;;;;;;;;;;;;;;;19.23;70.14;96657.47;5093446;28;19915;-61
2021/08/12 03:55:20;;;;;;;;;;;;;;;19.25;70.40;96658.22;5093500;28;19912;-63
2021/08/12 03:57:46;;;;;;;;;;;;;;;19.35;70.67;96666.34;5093328;28;19912;-62
2021/08/12 04:00:12;;;;;;;;;;;;;;;19.60;69.73;96664.59;5093216;28;19919;-61
2021/08/12 04:02:37;;;;;;;;;;;;;;;20.06;68.51;96671.00;5093097;28;19916;-62
2021/08/12 04:05:03;;;;;;;;;;;;;;;20.52;67.16;96664.94;5093084;28;19981;-63
2021/08/12 04:07:28;;;;;;;;;;;;;;;20.95;65.60;96658.16;5093199;28;19912;-63
2021/08/12 04:09:54;;;;;;;;;;;;;;;21.38;64.15;96661.00;5093074;28;19912;-63
2021/08/12 04:12:19;;;;;;;;;;;;;;;21.78;63.28;96665.78;5093106;28;19965;-64
2021/08/12 04:14:45;;;;;;;;;;;;;;;22.14;62.09;96670.00;5093156;28;19970;-62
2021/08/12 04:17:10;;;;;;;;;;;;;;;22.43;61.32;96667.56;5093098;28;19907;-61
2021/08/12 04:19:35;;;;;;;;;;;;;;;22.71;60.46;96667.91;5093300;28;19955;-63
2021/08/12 04:22:01;;;;;;;;;;;;;;;23.05;60.06;96663.28;5093034;28;20266;-61
2021/08/12 04:24:27;;;;;;;;;;;;;;;23.44;59.23;96666.13;5092900;28;19955;-64
2021/08/12 04:26:52;;;;;;;;;;;;;;;23.85;58.44;96666.09;5078449;28;20008;-64
2021/08/12 04:29:18;;;;;;;;;;;;;;;24.23;56.27;96671.59;5096853;28;19912;-64
2021/08/12 04:31:43;;;;;;;;;;;;;;;24.62;55.80;96661.81;5096690;28;20318;-63
2021/08/12 04:34:09;;;;;;;;;;;;;;;24.95;55.17;96669.53;5096676;28;19912;-63
2021/08/12 04:36:34;;;;;;;;;;;;;;;25.29;54.17;96668.09;5096442;28;19958;-61
2021/08/12 04:39:06;;;;;;;;;;;;;;;25.60;53.33;96673.19;5096413;28;19912;-62
2021/08/12 04:41:31;;;;;;;;;;;;;;;25.89;52.73;96674.84;5096429;28;20275;-63
2021/08/12 04:43:56;;;;;;;;;;;;;;;26.18;52.01;96679.13;5096349;28;19918;-63
2021/08/12 04:46:22;;;;;;;;;;;;;;;26.47;51.30;96682.56;5096112;28;20429;-62
2021/08/12 04:48:47;;;;;;;;;;;;;;;26.80;50.63;96682.81;5096424;28;19911;-61
2021/08/12 04:51:13;;;;;;;;;;;;;;;27.12;49.88;96683.19;5096375;28;20339;-63
2021/08/12 04:53:38;;;;;;;;;;;;;;;27.34;48.96;96687.16;5096259;28;20003;-62
2021/08/12 04:56:04;;;;;;;;;;;;;;;27.64;49.40;96689.44;5096198;28;20274;-62
2021/08/12 04:58:29;;;;;;;;;;;;;;;27.93;47.66;96696.25;5096196;28;19919;-62
2021/08/12 05:00:55;;;;;;;;;;;;;;;28.20;47.89;96699.66;5095886;28;20495;-63
2021/08/12 05:03:20;;;;;;;;;;;;;;;28.43;45.89;96699.03;5096070;28;19916;-62
2021/08/12 05:05:46;;;;;;;;;;;;;;;28.73;47.70;96707.44;5095896;28;19911;-62
2021/08/12 05:08:11;;;;;;;;;;;;;;;29.06;47.30;96705.72;5095974;28;19995;-63
2021/08/12 05:10:37;;;;;;;;;;;;;;;29.36;46.46;96706.81;5095849;28;19916;-62
2021/08/12 05:13:02;;;;;;;;;;;;;;;29.67;46.61;96707.06;5096002;28;19980;-64
2021/08/12 05:15:29;;;;;;;;;;;;;;;29.97;45.23;96704.50;5095942;28;19912;-61
2021/08/12 05:17:54;;;;;;;;;;;;;;;30.19;44.74;96705.56;5095749;28;19969;-63
2021/08/12 05:20:19;;;;;;;;;;;;;;;30.48;44.39;96714.81;5095824;28;19915;-61
2021/08/12 05:22:45;;;;;;;;;;;;;;;30.75;44.52;96717.97;5095626;28;19912;-64
2021/08/12 05:25:10;;;;;;;;;;;;;;;30.88;43.67;96711.13;5095483;28;19918;-63
2021/08/12 05:27:36;;;;;;;;;;;;;;;31.21;41.90;96713.47;5095610;28;19999;-63
2021/08/12 05:30:01;;;;;;;;;;;;;;;31.55;40.52;96710.41;5095642;28;19912;-63
2021/08/12 05:32:27;;;;;;;;;;;;;;;31.95;41.60;96715.50;5095583;28;20350;-63
2021/08/12 05:34:52;;;;;;;;;;;;;;;32.18;40.72;96725.31;5095487;28;19912;-62
2021/08/12 05:37:17;;;;;;;;;;;;;;;32.47;41.52;96718.94;5094555;28;19943;-63
2021/08/12 05:39:43;;;;;;;;;;;;;;;32.77;39.78;96726.09;5095310;28;20041;-61
2021/08/12 05:42:08;;;;;;;;;;;;;;;33.02;39.48;96729.19;5095425;28;19912;-60
2021/08/12 05:44:34;;;;;;;;;;;;;;;33.30;40.90;96730.25;5095349;28;19977;-62
2021/08/12 05:46:59;;;;;;;;;;;;;;;33.38;36.46;96721.94;5095554;28;20011;-63
2021/08/12 05:49:25;;;;;;;;;;;;;;;33.25;34.58;96721.88;5095363;28;20369;-62
2021/08/12 05:51:53;;;;;;;;;;;;;;;33.30;32.50;96723.97;5095065;28;20336;-62
2021/08/12 05:54:19;;;;;;;;;;;;;;;33.32;34.48;96728.19;5094948;28;19952;-63
2021/08/12 05:56:44;;;;;;;;;;;;;;;33.09;31.43;96731.16;5094995;28;19943;-63
2021/08/12 05:59:10;;;;;;;;;;;;;;;33.34;34.19;96733.38;5094977;28;20353;-61
2021/08/12 06:01:35;;;;;;;;;;;;;;;33.57;33.61;96734.97;5094919;28;20289;-64
2021/08/12 06:04:00;;;;;;;;;;;;;;;33.85;30.84;96737.63;5094854;28;20003;-60
2021/08/12 06:06:26;;;;;;;;;;;;;;;33.84;29.52;96735.13;5094922;28;19937;-63
2021/08/12 06:08:51;;;;;;;;;;;;;;;33.64;31.18;96731.28;5094802;28;19915;-62
2021/08/12 06:11:17;;;;;;;;;;;;;;;33.65;30.77;96732.97;5094756;28;19912;-63
2021/08/12 06:13:42;;;;;;;;;;;;;;;33.94;33.51;96724.72;5094661;28;20334;-63
2021/08/12 06:16:08;;;;;;;;;;;;;;;33.98;34.92;96736.00;5094542;28;19919;-62
2021/08/12 06:18:33;;;;;;;;;;;;;;;34.33;33.32;96725.06;5094599;28;19922;-63
2021/08/12 06:20:58;;;;;;;;;;;;;;;34.59;33.76;96728.00;5094666;28;20370;-61
2021/08/12 06:23:24;;;;;;;;;;;;;;;34.66;30.31;96729.72;5094654;28;19916;-62
2021/08/12 06:25:49;;;;;;;;;;;;;;;34.58;29.47;96729.06;5094253;28;19912;-63
2021/08/12 06:28:15;;;;;;;;;;;;;;;34.64;27.51;96733.66;5094344;28;20266;-62
2021/08/12 06:30:40;;;;;;;;;;;;;;;34.89;29.95;96733.06;5094345;28;19912;-61
2021/08/12 06:33:06;;;;;;;;;;;;;;;35.15;28.15;96731.34;5094327;28;19957;-62
2021/08/12 06:35:33;;;;;;;;;;;;;;;35.32;28.16;96737.22;5094396;28;19912;-62
2021/08/12 06:37:59;;;;;;;;;;;;;;;35.37;26.47;96731.13;5094191;28;20327;-61
2021/08/12 06:40:25;;;;;;;;;;;;;;;35.01;26.44;96739.53;5094324;28;20006;-64
2021/08/12 06:42:51;;;;;;;;;;;;;;;35.01;27.92;96735.97;5094316;28;20057;-63
2021/08/12 06:45:19;;;;;;;;;;;;;;;35.01;28.35;96727.84;5093821;28;19915;-63
2021/08/12 06:47:45;;;;;;;;;;;;;;;35.27;25.24;96732.41;5093969;28;19918;-62
2021/08/12 06:50:10;;;;;;;;;;;;;;;35.38;24.01;96722.78;5093359;28;20010;-61
2021/08/12 06:52:35;;;;;;;;;;;;;;;35.08;24.65;96725.94;5093967;28;19916;-61
2021/08/12 06:55:02;;;;;;;;;;;;;;;34.64;25.18;96725.53;5094124;28;19915;-61
2021/08/12 06:57:27;;;;;;;;;;;;;;;34.25;25.47;96715.22;5094027;28;19918;-63
2021/08/12 06:59:53;;;;;;;;;;;;;;;34.41;25.57;96722.13;5093870;28;20015;-64
2021/08/12 07:02:18;;;;;;;;;;;;;;;34.62;25.96;96720.31;5075793;28;19911;-61
2021/08/12 07:04:44;;;;;;;;;;;;;;;35.03;25.77;96723.84;5093744;28;19912;-63
2021/08/12 07:07:09;;;;;;;;;;;;;;;34.96;25.48;96731.19;5093689;28;19959;-63
2021/08/12 07:09:35;;;;;;;;;;;;;;;34.87;26.56;96727.84;5093869;28;19916;-62
2021/08/12 07:12:01;;;;;;;;;;;;;;;34.54;25.06;96729.47;5093907;28;19919;-61
2021/08/12 07:14:26;;;;;;;;;;;;;;;34.91;27.25;96729.09;5093769;28;20262;-63
2021/08/12 07:16:51;;;;;;;;;;;;;;;34.97;25.70;96732.03;5093653;28;19957;-63
2021/08/12 07:19:17;;;;;;;;;;;;;;;34.88;25.98;96734.94;5093598;28;19954;-62
2021/08/12 07:21:42;;;;;;;;;;;;;;;34.64;26.22;96736.38;5093777;28;19915;-62
2021/08/12 07:24:08;;;;;;;;;;;;;;;34.45;27.65;96733.44;5093513;28;19912;-63
2021/08/12 07:26:34;;;;;;;;;;;;;;;34.45;27.12;96736.16;5093581;28;20338;-64
2021/08/12 07:29:00;;;;;;;;;;;;;;;34.65;27.42;96733.50;5093480;28;19965;-64
2021/08/12 07:31:25;;;;;;;;;;;;;;;34.77;26.40;96735.56;5093720;28;19916;-62
2021/08/12 07:33:50;;;;;;;;;;;;;;;34.49;27.46;96736.59;5093667;28;20377;-62
2021/08/12 07:36:16;;;;;;;;;;;;;;;34.56;27.21;96740.13;5093722;28;19912;-62
2021/08/12 07:38:41;;;;;;;;;;;;;;;34.75;27.69;96738.50;5093479;28;19916;-62
2021/08/12 07:41:07;;;;;;;;;;;;;;;35.32;26.84;96745.38;5093541;28;20370;-63
2021/08/12 07:43:32;;;;;;;;;;;;;;;35.79;26.16;96741.72;5093440;28;20286;-63
2021/08/12 07:45:58;;;;;;;;;;;;;;;36.16;26.28;96749.25;5093157;28;19919;-62
2021/08/12 07:48:24;;;;;;;;;;;;;;;36.22;24.06;96744.88;5093260;28;19916;-62
2021/08/12 07:50:49;;;;;;;;;;;;;;;35.44;25.00;96753.69;5093293;28;20375;-63
2021/08/12 07:53:15;;;;;;;;;;;;;;;35.38;26.71;96749.97;5093286;28;19956;-63
2021/08/12 07:55:40;;;;;;;;;;;;;;;35.42;25.81;96753.06;5093362;28;19915;-62
2021/08/12 07:58:06;;;;;;;;;;;;;;;35.30;25.26;96747.44;5093397;28;19941;-63
2021/08/12 08:00:32;;;;;;;;;;;;;;;35.27;25.98;96748.72;5094902;28;19919;-63
2021/08/12 08:02:58;;;;;;;;;;;;;;;35.33;25.94;96746.22;5097320;28;20269;-64
2021/08/12 08:05:24;;;;;;;;;;;;;;;35.59;25.85;96739.84;5096995;28;19916;-63
2021/08/12 08:07:50;;;;;;;;;;;;;;;35.69;25.92;96742.16;5097113;28;19918;-61
2021/08/12 08:10:17;;;;;;;;;;;;;;;36.06;26.17;96744.31;5097142;28;19957;-61
2021/08/12 08:12:42;;;;;;;;;;;;;;;36.25;25.42;96741.69;5097078;28;19919;-62
2021/08/12 08:15:08;;;;;;;;;;;;;;;36.35;24.83;96739.34;5097110;28;20328;-61
2021/08/12 08:17:34;;;;;;;;;;;;;;;35.91;24.34;96744.59;5096722;28;19908;-62
2021/08/12 08:20:00;;;;;;;;;;;;;;;35.75;26.00;96744.00;5096884;28;19923;-63
2021/08/12 08:22:26;;;;;;;;;;;;;;;36.08;24.96;96739.47;5096817;28;19912;-62
2021/08/12 08:24:52;;;;;;;;;;;;;;;36.27;25.61;96737.72;5096848;28;19919;-62
2021/08/12 08:27:17;;;;;;;;;;;;;;;36.46;25.08;96734.25;5096750;28;19919;-63
2021/08/12 08:29:42;;;;;;;;;;;;;;;36.57;24.65;96738.16;5096581;28;20370;-62
2021/08/12 08:32:08;;;;;;;;;;;;;;;36.67;24.53;96743.94;5096751;28;19911;-63
2021/08/12 08:34:34;;;;;;;;;;;;;;;36.75;24.10;96749.13;5096674;28;19935;-62
2021/08/12 08:36:59;;;;;;;;;;;;;;;36.45;24.37;96747.03;5096694;28;19912;-62
2021/08/12 08:39:25;;;;;;;;;;;;;;;35.99;25.19;96743.50;5096504;28;19912;-63
2021/08/12 08:41:51;;;;;;;;;;;;;;;35.99;24.90;96740.78;5096409;28;20007;-63
2021/08/12 08:44:18;;;;;;;;;;;;;;;35.81;25.00;96744.22;5096125;28;19912;-62
2021/08/12 08:46:45;;;;;;;;;;;;;;;35.77;25.35;96736.47;5096398;28;19966;-64
2021/08/12 08:49:11;;;;;;;;;;;;;;;35.62;25.43;96739.44;5096429;28;19908;-62
2021/08/12 08:51:37;;;;;;;;;;;;;;;35.87;26.23;96740.59;5096238;28;19965;-62
2021/08/12 08:54:04;;;;;;;;;;;;;;;36.15;26.00;96737.53;5096143;28;20331;-64
2021/08/12 08:56:30;;;;;;;;;;;;;;;35.87;25.19;96748.75;5096113;28;19957;-63
2021/08/12 08:58:55;;;;;;;;;;;;;;;35.85;25.18;96743.56;5096208;28;19916;-64
2021/08/12 09:01:20;;;;;;;;;;;;;;;35.48;25.34;96754.13;5096114;28;20018;-62
2021/08/12 09:03:46;;;;;;;;;;;;;;;35.10;25.52;96742.03;5095937;28;19912;-63
2021/08/12 09:06:13;;;;;;;;;;;;;;;34.82;26.45;96740.38;5096021;28;19912;-63
2021/08/12 09:08:38;;;;;;;;;;;;;;;34.82;26.80;96740.38;5095913;28;19912;-63
2021/08/12 09:11:04;;;;;;;;;;;;;;;34.87;25.64;96738.72;5095474;28;20281;-63
2021/08/12 09:13:29;;;;;;;;;;;;;;;34.77;27.10;96741.84;5095222;28;20369;-63
2021/08/12 09:15:55;;;;;;;;;;;;;;;34.90;27.63;96737.44;5095817;28;19947;-63
2021/08/12 09:18:25;;;;;;;;;;;;;;;35.21;27.05;96738.69;5095673;28;20004;-63
2021/08/12 09:20:52;;;;;;;;;;;;;;;35.00;25.79;96743.28;5095770;28;19920;-62
2021/08/12 09:23:25;;;;;;;;;;;;;;;34.84;26.95;96741.00;5095744;28;20057;-63
2021/08/12 09:25:51;;;;;;;;;;;;;;;34.86;27.78;96728.91;5095629;28;20440;-63
2021/08/12 09:28:26;;;;;;;;;;;;;;;34.90;26.37;96721.16;5095673;28;20046;-63
2021/08/12 09:30:58;;;;;;;;;;;;;;;34.46;26.17;96728.84;5095617;28;19951;-63
2021/08/12 09:33:24;;;;;;;;;;;;;;;33.97;26.81;96724.31;5095368;28;19916;-62
2021/08/12 09:35:50;;;;;;;;;;;;;;;34.07;27.69;96731.25;5095506;28;20305;-62
2021/08/12 09:38:16;;;;;;;;;;;;;;;34.39;28.83;96736.97;5095545;28;19912;-64
2021/08/12 09:40:45;;;;;;;;;;;;;;;34.13;26.27;96744.03;5095318;28;19915;-61
2021/08/12 09:43:10;;;;;;;;;;;;;;;34.08;27.01;96739.19;5095219;28;19912;-62
2021/08/12 09:45:38;;;;;;;;;;;;;;;34.19;26.40;96751.31;5094861;28;19919;-62
2021/08/12 09:48:13;;;;;;;;;;;;;;;33.78;26.58;96743.03;5095261;28;19915;-63
2021/08/12 09:50:40;;;;;;;;;;;;;;;33.66;26.73;96741.94;5095242;28;19912;-63
2021/08/12 09:53:06;;;;;;;;;;;;;;;33.26;27.07;96737.13;5095113;28;19912;-61
2021/08/12 09:55:38;;;;;;;;;;;;;;;33.21;27.71;96740.41;5094969;28;19919;-62
2021/08/12 09:58:08;;;;;;;;;;;;;;;33.28;27.46;96741.28;5094893;28;19916;-64
2021/08/12 10:00:42;;;;;;;;;;;;;;;33.40;27.65;96738.00;5095010;28;19916;-62
2021/08/12 10:03:26;;;;;;;;;;;;;;;33.58;26.90;96745.63;5095000;28;19924;-61
2021/08/12 10:05:52;;;;;;;;;;;;;;;33.88;27.04;96733.66;5094882;28;20286;-64
2021/08/12 10:08:35;;;;;;;;;;;;;;;34.27;27.58;96726.72;5094838;28;20003;-62
2021/08/12 10:11:17;;;;;;;;;;;;;;;34.69;25.43;96723.03;5094810;28;19918;-62
2021/08/12 10:13:42;;;;;;;;;;;;;;;35.02;25.31;96732.22;5094740;28;19916;-64
2021/08/12 10:16:09;;;;;;;;;;;;;;;35.36;23.96;96729.47;5094716;28;20431;-62
2021/08/12 10:18:36;;;;;;;;;;;;;;;35.57;24.47;96730.25;5094598;28;19916;-63
2021/08/12 10:21:01;;;;;;;;;;;;;;;35.62;24.37;96731.28;5094530;28;19912;-62
2021/08/12 10:23:27;;;;;;;;;;;;;;;35.47;24.57;96730.69;5094246;28;19973;-64
2021/08/12 10:25:57;;;;;;;;;;;;;;;35.29;25.64;96726.75;5094472;28;19912;-63
2021/08/12 10:28:24;;;;;;;;;;;;;;;34.97;24.90;96726.59;5094651;28;19914;-64
2021/08/12 10:30:49;;;;;;;;;;;;;;;34.34;25.24;96726.72;5094501;28;19988;-63
2021/08/12 10:33:15;;;;;;;;;;;;;;;34.00;25.75;96723.91;5094310;28;20258;-64
2021/08/12 10:35:40;;;;;;;;;;;;;;;33.48;26.53;96721.59;5094328;28;20442;-63
2021/08/12 10:38:06;;;;;;;;;;;;;;;33.12;27.08;96726.19;5094361;28;19912;-63
2021/08/12 10:40:32;;;;;;;;;;;;;;;33.01;27.63;96726.69;5094298;28;19912;-61
2021/08/12 10:42:59;;;;;;;;;;;;;;;33.08;26.55;96722.19;5094137;28;20456;-63
2021/08/12 10:45:25;;;;;;;;;;;;;;;33.17;26.53;96716.63;5093887;28;19915;-62
2021/08/12 10:47:54;;;;;;;;;;;;;;;33.48;26.96;96718.88;5094243;28;19916;-63
2021/08/12 10:50:22;;;;;;;;;;;;;;;33.63;25.71;96716.06;5075997;28;19912;-63
2021/08/12 10:53:14;;;;;;;;;;;;;;;33.47;25.31;96716.38;5094033;28;20290;-63
2021/08/12 10:55:51;;;;;;;;;;;;;;;33.46;26.65;96717.41;5094117;28;20365;-63
2021/08/12 10:58:25;;;;;;;;;;;;;;;33.39;26.86;96712.81;5093902;28;20003;-62
2021/08/12 11:00:56;;;;;;;;;;;;;;;33.30;28.60;96716.69;5094000;28;19912;-62
2021/08/12 11:03:34;;;;;;;;;;;;;;;33.30;28.27;96724.84;5093837;28;19912;-63
2021/08/12 11:06:03;;;;;;;;;;;;;;;33.31;26.00;96722.97;5093762;28;20277;-63
2021/08/12 11:08:47;;;;;;;;;;;;;;;33.49;25.35;96723.25;5093684;28;19912;-62
2021/08/12 11:11:13;;;;;;;;;;;;;;;33.71;24.55;96716.94;5093755;28;19912;-63
2021/08/12 11:13:38;;;;;;;;;;;;;;;33.74;24.06;96716.53;5093897;28;19930;-62
2021/08/12 11:16:04;;;;;;;;;;;;;;;33.68;24.32;96717.34;5093668;28;19916;-62
2021/08/12 11:18:44;;;;;;;;;;;;;;;33.94;24.61;96713.88;5093694;28;19916;-62
2021/08/12 11:21:28;;;;;;;;;;;;;;;34.06;23.98;96711.41;5093631;28;20305;-61
2021/08/12 11:23:54;;;;;;;;;;;;;;;34.16;23.83;96705.63;5093621;28;19912;-62
2021/08/12 11:26:19;;;;;;;;;;;;;;;34.41;23.15;96707.75;5093576;28;19938;-63
2021/08/12 11:28:45;;;;;;;;;;;;;;;34.31;23.61;96699.19;5093705;28;20323;-61
2021/08/12 11:31:19;;;;;;;;;;;;;;;34.12;23.44;96701.59;5093512;28;19919;-62
2021/08/12 11:33:46;;;;;;;;;;;;;;;33.90;24.62;96702.63;5093455;28;19973;-63
2021/08/12 11:36:13;;;;;;;;;;;;;;;33.87;24.43;96703.03;5096406;28;19912;-63
2021/08/12 11:38:42;;;;;;;;;;;;;;;33.84;25.10;96699.88;5097750;28;20331;-64
2021/08/12 11:41:08;;;;;;;;;;;;;;;33.87;25.22;96699.47;5097734;28;19912;-62
2021/08/12 11:43:34;;;;;;;;;;;;;;;33.86;24.91;96701.31;5097537;28;19916;-60
2021/08/12 11:46:00;;;;;;;;;;;;;;;33.89;24.01;96700.94;5097413;28;20262;-62
2021/08/12 11:48:31;;;;;;;;;;;;;;;33.96;24.42;96705.53;5097537;28;19919;-63
2021/08/12 11:50:59;;;;;;;;;;;;;;;33.98;23.95;96698.84;5097682;28;19912;-62
2021/08/12 11:53:42;;;;;;;;;;;;;;;34.01;26.61;96698.44;5097426;28;19974;-64
2021/08/12 11:56:13;;;;;;;;;;;;;;;33.97;25.58;96701.78;5097374;28;20012;-63
2021/08/12 11:58:38;;;;;;;;;;;;;;;33.50;24.09;96700.53;5097421;28;19951;-63
2021/08/12 12:01:14;;;;;;;;;;;;;;;33.38;24.44;96710.28;5097396;28;19967;-62
2021/08/12 12:03:39;;;;;;;;;;;;;;;33.35;25.54;96705.28;5097360;28;19912;-62
2021/08/12 12:06:05;;;;;;;;;;;;;;;33.40;25.18;96708.19;5097204;28;19912;-60
2021/08/12 12:08:30;;;;;;;;;;;;;;;33.40;23.44;96700.91;5097173;28;20328;-62
2021/08/12 12:11:06;;;;;;;;;;;;;;;33.42;24.29;96698.00;5097007;28;20286;-62
2021/08/12 12:13:32;;;;;;;;;;;;;;;33.51;25.10;96699.53;5097250;28;20259;-63
2021/08/12 12:15:57;;;;;;;;;;;;;;;33.52;24.57;96695.75;5097001;28;19914;-62
2021/08/12 12:18:31;;;;;;;;;;;;;;;33.55;23.55;96689.09;5097044;28;20374;-62
2021/08/12 12:21:03;;;;;;;;;;;;;;;33.78;22.04;96691.53;5096897;28;19912;-61
2021/08/12 12:23:29;;;;;;;;;;;;;;;33.87;22.33;96681.31;5096785;28;19915;-63
2021/08/12 12:25:55;;;;;;;;;;;;;;;33.97;26.08;96686.34;5096675;28;19920;-63
2021/08/12 12:28:21;;;;;;;;;;;;;;;34.10;26.21;96684.72;5096833;28;20328;-62
2021/08/12 12:30:46;;;;;;;;;;;;;;;34.10;21.89;96676.59;5096722;28;20263;-63
2021/08/12 12:33:14;;;;;;;;;;;;;;;34.35;23.58;96676.84;5096555;28;19972;-63
2021/08/12 12:35:42;;;;;;;;;;;;;;;34.68;23.52;96664.34;5096542;28;19965;-62
2021/08/12 12:38:10;;;;;;;;;;;;;;;34.86;20.80;96677.28;5096483;28;20290;-62
2021/08/12 12:40:36;;;;;;;;;;;;;;;34.81;20.90;96674.38;5096606;28;19912;-61
2021/08/12 12:43:02;;;;;;;;;;;;;;;34.96;22.79;96671.41;5096546;28;19912;-61
2021/08/12 12:45:28;;;;;;;;;;;;;;;34.68;19.82;96660.78;5096031;28;19969;-62
2021/08/12 12:48:06;;;;;;;;;;;;;;;34.64;19.93;96658.47;5096218;28;19916;-63